SAVV/VDM METAR and TAF weather

Enter ICAO airport designator
Station Type Date Time Source
SAVV METAR 2019/08/17 19:10 UTC NOAA

SAVV 171910Z 18013KT 6000 RA SCT025 OVC040 08/06 Q1017


Station Type Date Time Source
SAVV Decoded METAR 2019/08/17 19:10 UTC NOAA

Station name not available
Aug 17, 2019 - 03:10 PM EDT / 2019.08.17 1910 UTC
Wind: from the S (180 degrees) at 15 MPH (13 KT):0
Visibility: 3 mile(s):0
Sky conditions: overcast
Weather: rain
Temperature: 46 F (8 C)
Dew Point: 42 F (6 C)
Relative Humidity: 87%
Pressure (altimeter): 30.03 in. Hg (1017 hPa)
ob: SAVV 171910Z 18013KT 6000 RA SCT025 OVC040 08/06 Q1017
cycle: 19

Station Type Date Time Source
SAVV TAF 2019/04/29 06:24 UTC NOAA

TAF TAF SAVV 290500Z 2906/3006 29015KT CAVOK TX18/2919Z TN07/3006Z
BECMG 2908/3010 25010KT
TEMPO 2914/2921 25020G30KT

Example: see airport list